Time;durP1;ratioP1;P1;durP2;ratioP2;P2;SDS_P1;SDS_P2;PMS_P1;PMS_P2;Temp;Humidity;BMP_temperature;BMP_pressure;BME280_temperature;BME280_humidity;BME280_pressure;Samples;Min_cycle;Max_cycle;Signal;HPM_P1;HPM_P2
2023/01/15 00:01:28;;;;;;;;;;;;;;;20.98;27.45;98471.13;5057643;28;914;-73
2023/01/15 00:03:53;;;;;;;;;;;;;;;21.36;26.91;98465.28;5071101;28;970;-73
2023/01/15 00:06:19;;;;;;;;;;;;;;;21.63;26.24;98477.28;5055232;28;918;-74
2023/01/15 00:08:44;;;;;;;;;;;;;;;21.22;26.89;98469.91;5054976;28;1902;-73
2023/01/15 00:11:10;;;;;;;;;;;;;;;20.99;27.27;98467.09;5070516;28;1225;-74
2023/01/15 00:13:35;;;;;;;;;;;;;;;21.02;27.24;98471.88;5055730;28;930;-73
2023/01/15 00:16:02;;;;;;;;;;;;;;;21.12;27.12;98462.41;5055422;28;933;-74
2023/01/15 00:18:27;;;;;;;;;;;;;;;21.30;26.92;98464.97;5055135;28;959;-74
2023/01/15 00:20:57;;;;;;;;;;;;;;;21.51;26.55;98472.28;5055043;28;932;-73
2023/01/15 00:28:52;;;;;;;;;;;;;;;21.15;27.48;98472.88;5068437;28;1969;-74
2023/01/15 00:31:17;;;;;;;;;;;;;;;21.51;26.64;98475.91;5055324;28;998;-73
2023/01/15 00:33:43;;;;;;;;;;;;;;;21.39;26.61;98470.06;5054990;28;927;-73
2023/01/15 00:36:08;;;;;;;;;;;;;;;21.18;26.85;98486.16;5055518;28;904;-73
2023/01/15 00:38:33;;;;;;;;;;;;;;;21.09;26.88;98477.44;5054940;28;1107;-73
2023/01/15 00:40:59;;;;;;;;;;;;;;;20.86;27.34;98480.22;5055288;28;903;-73
2023/01/15 00:43:24;;;;;;;;;;;;;;;21.22;27.12;98475.56;5055303;28;908;-74
2023/01/15 00:45:50;;;;;;;;;;;;;;;21.28;26.85;98473.84;5055183;28;938;-74
2023/01/15 00:48:15;;;;;;;;;;;;;;;21.56;26.36;98471.78;5058658;28;2381;-74
2023/01/15 00:50:41;;;;;;;;;;;;;;;21.42;26.61;98474.88;5073392;28;1007;-73
2023/01/15 00:53:06;;;;;;;;;;;;;;;21.62;26.18;98475.69;5057134;28;962;-74
2023/01/15 00:55:32;;;;;;;;;;;;;;;21.04;26.85;98475.09;5058803;28;907;-73
2023/01/15 00:57:57;;;;;;;;;;;;;;;21.10;27.17;98484.69;5058485;28;937;-73
2023/01/15 01:00:23;;;;;;;;;;;;;;;21.17;26.64;98483.75;5057440;28;1130;-73
2023/01/15 01:02:48;;;;;;;;;;;;;;;21.31;26.77;98487.19;5058428;28;916;-73
2023/01/15 01:05:13;;;;;;;;;;;;;;;21.46;26.50;98478.44;5074169;28;919;-74
2023/01/15 01:07:39;;;;;;;;;;;;;;;21.42;26.53;98469.19;5057106;28;1191;-74
2023/01/15 01:10:05;;;;;;;;;;;;;;;21.12;27.07;98465.25;5056905;28;1926;-73
2023/01/15 01:12:30;;;;;;;;;;;;;;;20.95;27.25;98472.00;5058261;28;927;-74
2023/01/15 01:14:55;;;;;;;;;;;;;;;21.10;27.04;98464.09;5072464;28;1218;-74
2023/01/15 01:17:21;;;;;;;;;;;;;;;21.45;26.57;98457.81;5055965;28;1295;-73
2023/01/15 01:19:46;;;;;;;;;;;;;;;21.31;26.75;98456.03;5055595;28;2038;-73
2023/01/15 01:22:12;;;;;;;;;;;;;;;21.27;26.80;98455.28;5055966;28;1023;-73
2023/01/15 01:24:38;;;;;;;;;;;;;;;21.05;26.93;98448.41;5055709;28;998;-73
2023/01/15 01:27:05;;;;;;;;;;;;;;;20.85;27.36;98456.81;5039655;28;1017;-74
2023/01/15 01:29:31;;;;;;;;;;;;;;;21.37;26.83;98453.50;5055516;28;1894;-73
2023/01/15 01:31:56;;;;;;;;;;;;;;;21.23;27.18;98463.03;5055473;28;1109;-73
2023/01/15 01:34:21;;;;;;;;;;;;;;;21.32;26.82;98459.66;5055632;28;936;-73
2023/01/15 01:36:47;;;;;;;;;;;;;;;21.17;26.84;98458.28;5039186;28;1055;-73
2023/01/15 01:39:13;;;;;;;;;;;;;;;21.26;26.94;98458.53;5022383;28;1311;-73
2023/01/15 01:41:40;;;;;;;;;;;;;;;21.13;26.90;98455.53;5055214;28;1634;-73
2023/01/15 01:44:07;;;;;;;;;;;;;;;21.42;26.72;98449.38;5038806;28;1135;-73
2023/01/15 01:46:33;;;;;;;;;;;;;;;21.29;26.82;98455.63;5056706;28;1027;-73
2023/01/15 01:49:01;;;;;;;;;;;;;;;21.41;26.55;98453.44;5057388;28;1967;-74
2023/01/15 01:51:29;;;;;;;;;;;;;;;21.08;26.87;98459.63;5073012;28;989;-75
2023/01/15 01:53:54;;;;;;;;;;;;;;;20.92;27.08;98456.69;5056458;28;1154;-73
2023/01/15 01:56:20;;;;;;;;;;;;;;;21.14;27.22;98454.31;5056441;28;1133;-73
2023/01/15 01:58:47;;;;;;;;;;;;;;;21.41;26.62;98456.28;5055829;28;1105;-73
2023/01/15 02:01:13;;;;;;;;;;;;;;;21.44;26.48;98458.22;5072928;28;955;-74
2023/01/15 02:03:38;;;;;;;;;;;;;;;21.20;26.99;98458.25;5057145;28;893;-73
2023/01/15 02:06:05;;;;;;;;;;;;;;;21.16;26.80;98449.00;5072593;28;1073;-75
2023/01/15 02:08:33;;;;;;;;;;;;;;;20.90;27.43;98455.53;5072471;28;1909;-74
2023/01/15 02:10:59;;;;;;;;;;;;;;;21.35;26.80;98453.16;5072729;28;991;-73
2023/01/15 02:13:29;;;;;;;;;;;;;;;21.33;26.68;98456.41;5055984;28;1541;-74
2023/01/15 02:16:12;;;;;;;;;;;;;;;21.55;26.58;98456.00;5056131;28;1427;-74
2023/01/15 02:18:48;;;;;;;;;;;;;;;21.00;27.00;98457.38;5056803;28;999;-73
2023/01/15 02:21:13;;;;;;;;;;;;;;;20.84;27.42;98454.41;5056177;28;851;-73
2023/01/15 02:23:39;;;;;;;;;;;;;;;21.31;26.81;98458.88;5055784;28;1235;-74
2023/01/15 02:26:23;;;;;;;;;;;;;;;21.43;26.58;98456.63;5055489;28;1285;-74
2023/01/15 02:28:49;;;;;;;;;;;;;;;21.22;27.18;98457.81;5072265;28;1906;-73
2023/01/15 02:31:16;;;;;;;;;;;;;;;21.28;26.78;98448.38;5055605;28;1095;-73
2023/01/15 02:34:03;;;;;;;;;;;;;;;21.13;27.07;98455.53;5055554;28;1306;-74
2023/01/15 02:36:29;;;;;;;;;;;;;;;21.06;26.69;98445.13;5034112;28;1338;-73
2023/01/15 02:38:58;;;;;;;;;;;;;;;21.21;27.01;98450.53;5017629;28;1246;-73
2023/01/15 02:41:28;;;;;;;;;;;;;;;21.29;26.87;98441.47;5018146;28;1177;-73
2023/01/15 02:43:55;;;;;;;;;;;;;;;21.42;26.62;98435.22;4997721;28;1001;-73
2023/01/15 02:46:24;;;;;;;;;;;;;;;21.41;26.64;98436.47;4982311;28;1116;-73
2023/01/15 02:48:51;;;;;;;;;;;;;;;21.05;26.91;98445.56;4981992;28;1915;-73
2023/01/15 02:51:19;;;;;;;;;;;;;;;20.92;27.03;98433.25;5014325;28;889;-73
2023/01/15 02:53:45;;;;;;;;;;;;;;;21.25;26.91;98434.31;5014243;28;1222;-73
2023/01/15 02:56:13;;;;;;;;;;;;;;;21.05;27.11;98431.44;4981901;28;1300;-73
2023/01/15 02:58:44;;;;;;;;;;;;;;;21.21;26.89;98423.03;4982570;28;1108;-73
2023/01/15 03:01:14;;;;;;;;;;;;;;;20.96;27.14;98426.31;4981803;28;1151;-74
2023/01/15 03:03:52;;;;;;;;;;;;;;;20.75;27.31;98430.31;4981586;28;1120;-75
2023/01/15 03:06:19;;;;;;;;;;;;;;;20.81;27.20;98437.06;4997591;28;963;-74
2023/01/15 03:08:46;;;;;;;;;;;;;;;21.11;27.09;98429.69;4980892;28;1970;-73
2023/01/15 03:11:12;;;;;;;;;;;;;;;21.29;26.87;98435.00;5013596;28;1004;-73
2023/01/15 03:13:50;;;;;;;;;;;;;;;21.21;26.84;98430.72;5005792;28;1072;-73
2023/01/15 03:16:33;;;;;;;;;;;;;;;21.16;26.80;98419.91;5055782;28;933;-73
2023/01/15 03:19:17;;;;;;;;;;;;;;;20.79;27.30;98421.75;5069723;28;967;-74
2023/01/15 03:21:55;;;;;;;;;;;;;;;20.67;27.46;98417.50;5057128;28;1259;-73
2023/01/15 03:24:39;;;;;;;;;;;;;;;20.96;27.35;98422.69;5040243;28;1071;-73
2023/01/15 03:27:07;;;;;;;;;;;;;;;21.26;26.83;98430.25;5073375;28;944;-73
2023/01/15 03:29:33;;;;;;;;;;;;;;;21.21;26.77;98428.69;5023181;28;1991;-73
2023/01/15 03:31:59;;;;;;;;;;;;;;;21.41;26.56;98430.81;5040275;28;1220;-74
2023/01/15 03:34:26;;;;;;;;;;;;;;;21.01;26.89;98436.34;5040329;28;1082;-73
2023/01/15 03:36:51;;;;;;;;;;;;;;;20.75;27.31;98430.31;5056922;28;1038;-73
2023/01/15 03:39:17;;;;;;;;;;;;;;;20.85;27.02;98427.72;5073469;28;1069;-74
2023/01/15 03:42:08;;;;;;;;;;;;;;;21.12;26.95;98436.94;5056739;28;1340;-74
2023/01/15 03:44:51;;;;;;;;;;;;;;;21.36;26.75;98440.59;5056506;28;946;-73
2023/01/15 03:47:17;;;;;;;;;;;;;;;21.43;26.27;98440.44;5073281;28;991;-73
2023/01/15 03:49:46;;;;;;;;;;;;;;;21.38;26.56;98442.97;5076514;28;1910;-73
2023/01/15 03:52:36;;;;;;;;;;;;;;;20.90;27.04;98459.16;5073736;28;1217;-74
2023/01/15 03:55:01;;;;;;;;;;;;;;;20.86;27.16;98451.94;5057623;28;1273;-74
2023/01/15 03:57:28;;;;;;;;;;;;;;;21.02;26.81;98455.69;5074201;28;1223;-73
2023/01/15 03:59:54;;;;;;;;;;;;;;;21.07;26.96;98457.25;5074122;28;1122;-75
2023/01/15 04:02:20;;;;;;;;;;;;;;;21.05;27.07;98465.38;5074109;28;923;-75
2023/01/15 04:04:47;;;;;;;;;;;;;;;21.23;26.83;98460.19;5057734;28;1236;-74
2023/01/15 04:07:13;;;;;;;;;;;;;;;21.28;26.66;98459.69;5073923;28;1162;-75
2023/01/15 04:09:39;;;;;;;;;;;;;;;21.05;27.00;98457.69;5057981;28;1952;-75
2023/01/15 04:12:06;;;;;;;;;;;;;;;20.89;27.09;98457.56;5091159;28;1247;-75
2023/01/15 04:14:37;;;;;;;;;;;;;;;21.04;27.11;98455.28;5074777;28;1278;-76
2023/01/15 04:17:08;;;;;;;;;;;;;;;21.17;26.89;98459.09;5058374;28;1293;-75
2023/01/15 04:19:33;;;;;;;;;;;;;;;21.19;27.00;98451.00;5075335;28;818;-75
2023/01/15 04:22:04;;;;;;;;;;;;;;;21.31;26.85;98458.88;5061716;28;1164;-75
2023/01/15 04:24:30;;;;;;;;;;;;;;;21.20;26.93;98446.91;5079055;28;864;-75
2023/01/15 04:26:55;;;;;;;;;;;;;;;20.99;26.96;98455.78;5079105;28;789;-75
2023/01/15 04:29:21;;;;;;;;;;;;;;;20.87;27.10;98451.50;5060085;28;1981;-75
2023/01/15 04:31:46;;;;;;;;;;;;;;;21.19;26.80;98447.31;5061109;28;1224;-75
2023/01/15 04:34:12;;;;;;;;;;;;;;;21.24;26.69;98444.84;5077089;28;914;-75
2023/01/15 04:36:37;;;;;;;;;;;;;;;21.25;26.76;98446.41;5094786;28;931;-75
2023/01/15 04:39:03;;;;;;;;;;;;;;;21.44;26.40;98444.88;5078073;28;936;-75
2023/01/15 04:44:12;;;;;;;;;;;;;;;21.11;26.78;98451.53;5078659;28;944;-75
2023/01/15 04:46:39;;;;;;;;;;;;;;;20.93;27.18;98451.81;5078606;28;1131;-75
2023/01/15 04:49:04;;;;;;;;;;;;;;;21.07;27.13;98452.38;5077403;28;1906;-75
2023/01/15 04:51:30;;;;;;;;;;;;;;;21.13;27.00;98457.56;5077731;28;978;-75
2023/01/15 04:53:55;;;;;;;;;;;;;;;21.38;26.62;98465.63;5078643;28;1134;-75
2023/01/15 04:56:21;;;;;;;;;;;;;;;21.38;26.66;98476.94;5077304;28;957;-75
2023/01/15 04:58:46;;;;;;;;;;;;;;;20.95;27.08;98472.00;5078352;28;993;-75
2023/01/15 05:01:15;;;;;;;;;;;;;;;21.00;26.83;98471.53;5078176;28;1071;-75
2023/01/15 05:03:40;;;;;;;;;;;;;;;20.78;27.32;98477.53;5077554;28;960;-75
2023/01/15 05:06:06;;;;;;;;;;;;;;;21.06;27.02;98472.63;5077266;28;944;-75
2023/01/15 05:08:32;;;;;;;;;;;;;;;21.16;26.72;98476.50;5078291;28;1910;-75
2023/01/15 05:11:03;;;;;;;;;;;;;;;21.32;26.84;98485.16;5077049;28;982;-75
2023/01/15 05:13:31;;;;;;;;;;;;;;;21.45;26.23;98488.13;5078463;28;910;-74
2023/01/15 05:15:56;;;;;;;;;;;;;;;21.08;26.70;98481.47;5077222;28;929;-75
2023/01/15 05:18:22;;;;;;;;;;;;;;;20.77;27.44;98484.38;5078563;28;946;-75
2023/01/15 05:20:47;;;;;;;;;;;;;;;20.89;27.23;98483.03;5078282;28;904;-74
2023/01/15 05:23:12;;;;;;;;;;;;;;;21.25;26.66;98486.03;5078169;28;931;-75
2023/01/15 05:25:38;;;;;;;;;;;;;;;21.43;26.56;98490.63;5078016;28;963;-74
2023/01/15 05:28:04;;;;;;;;;;;;;;;21.34;26.68;98488.34;5078158;28;1198;-74
2023/01/15 05:30:29;;;;;;;;;;;;;;;21.24;26.63;98494.94;5076499;28;1915;-75
2023/01/15 05:32:55;;;;;;;;;;;;;;;20.73;27.20;98492.16;5075937;28;911;-75
2023/01/15 05:35:20;;;;;;;;;;;;;;;20.62;27.33;98494.31;5078026;28;897;-75
2023/01/15 05:37:46;;;;;;;;;;;;;;;21.01;27.20;98492.91;5076866;28;980;-75
2023/01/15 05:40:11;;;;;;;;;;;;;;;21.14;26.86;98502.41;5076811;28;1582;-76
2023/01/15 05:42:37;;;;;;;;;;;;;;;21.16;26.63;98493.50;5076422;28;1210;-74
2023/01/15 05:45:02;;;;;;;;;;;;;;;21.35;26.77;98489.13;5077725;28;988;-74
2023/01/15 05:47:28;;;;;;;;;;;;;;;21.35;26.38;98474.97;5076332;28;979;-75
2023/01/15 05:49:53;;;;;;;;;;;;;;;21.02;26.97;98483.19;5077422;28;1971;-74
2023/01/15 05:52:19;;;;;;;;;;;;;;;20.73;27.21;98477.22;5077316;28;1004;-75
2023/01/15 05:54:44;;;;;;;;;;;;;;;20.71;27.34;98482.47;5077819;28;916;-75
2023/01/15 05:57:10;;;;;;;;;;;;;;;21.08;26.86;98487.13;5077375;28;1023;-75
2023/01/15 05:59:36;;;;;;;;;;;;;;;21.14;27.02;98488.25;5076295;28;972;-75
2023/01/15 06:02:01;;;;;;;;;;;;;;;21.41;26.32;98493.09;5076566;28;987;-75
2023/01/15 06:04:26;;;;;;;;;;;;;;;21.44;26.37;98495.03;5077373;28;1175;-75
2023/01/15 06:06:52;;;;;;;;;;;;;;;20.96;26.85;98496.25;5077057;28;1039;-76
2023/01/15 06:09:18;;;;;;;;;;;;;;;20.89;26.89;98499.19;5076193;28;1973;-75
2023/01/15 06:11:43;;;;;;;;;;;;;;;20.91;27.28;98493.91;5077155;28;953;-75
2023/01/15 06:14:09;;;;;;;;;;;;;;;21.08;26.99;98489.97;5076802;28;1016;-75
2023/01/15 06:16:35;;;;;;;;;;;;;;;21.04;26.98;98487.22;5077248;28;940;-75
2023/01/15 06:19:02;;;;;;;;;;;;;;;21.32;26.79;98485.94;5076010;28;947;-76
2023/01/15 06:21:28;;;;;;;;;;;;;;;20.99;26.76;98484.88;5075915;28;920;-75
2023/01/15 06:23:53;;;;;;;;;;;;;;;20.89;27.08;98497.16;5076864;28;913;-75
2023/01/15 06:26:19;;;;;;;;;;;;;;;20.68;27.38;98492.63;5075545;28;913;-75
2023/01/15 06:28:44;;;;;;;;;;;;;;;21.36;26.58;98485.09;5076496;28;1980;-75
2023/01/15 06:31:10;;;;;;;;;;;;;;;21.58;26.15;98491.94;5076538;28;982;-75
2023/01/15 06:33:36;;;;;;;;;;;;;;;21.20;26.59;98478.06;5075709;28;1038;-75
2023/01/15 06:36:05;;;;;;;;;;;;;;;20.93;26.94;98480.91;5076841;28;941;-75
2023/01/15 06:38:30;;;;;;;;;;;;;;;20.75;27.35;98471.91;5076532;28;944;-74
2023/01/15 06:40:57;;;;;;;;;;;;;;;21.27;26.81;98477.91;5057223;28;1020;-75
2023/01/15 06:48:51;;;;;;;;;;;;;;;21.12;26.47;98473.72;5073939;28;1902;-76
2023/01/15 06:51:19;;;;;;;;;;;;;;;21.08;26.79;98470.16;5057204;28;1207;-74
2023/01/15 06:53:45;;;;;;;;;;;;;;;20.98;26.63;98476.78;5057579;28;955;-75
2023/01/15 06:56:13;;;;;;;;;;;;;;;21.25;26.73;98474.72;5057328;28;1057;-75
2023/01/15 06:58:38;;;;;;;;;;;;;;;21.45;26.12;98479.66;5074156;28;1125;-75
2023/01/15 07:01:10;;;;;;;;;;;;;;;21.52;26.25;98477.50;5073923;28;929;-75
2023/01/15 07:03:35;;;;;;;;;;;;;;;21.19;26.30;98478.47;5073699;28;957;-75
2023/01/15 07:06:11;;;;;;;;;;;;;;;21.15;26.49;98475.72;5073958;28;1084;-75
2023/01/15 07:08:36;;;;;;;;;;;;;;;21.16;26.28;98477.31;5073407;28;2007;-75
2023/01/15 07:11:06;;;;;;;;;;;;;;;21.17;26.50;98478.91;5074052;28;977;-74
2023/01/15 07:13:31;;;;;;;;;;;;;;;21.33;26.23;98484.69;5075896;28;1054;-75
2023/01/15 07:15:57;;;;;;;;;;;;;;;21.31;26.42;98473.03;5058052;28;1125;-75
2023/01/15 07:18:23;;;;;;;;;;;;;;;21.16;26.73;98485.78;5074904;28;935;-74
2023/01/15 07:20:48;;;;;;;;;;;;;;;21.08;26.47;98481.47;5076087;28;954;-74
2023/01/15 07:23:14;;;;;;;;;;;;;;;21.01;26.84;98476.75;5075855;28;872;-74
2023/01/15 07:25:39;;;;;;;;;;;;;;;21.30;26.37;98484.78;5075867;28;902;-75
2023/01/15 07:28:05;;;;;;;;;;;;;;;21.21;26.47;98485.31;5076024;28;933;-75
2023/01/15 07:30:30;;;;;;;;;;;;;;;21.23;26.68;98488.50;5075544;28;1913;-74
2023/01/15 07:32:55;;;;;;;;;;;;;;;21.12;26.57;98482.22;5075924;28;976;-74
2023/01/15 07:35:21;;;;;;;;;;;;;;;21.12;26.41;98481.41;5075824;28;852;-75
2023/01/15 07:37:50;;;;;;;;;;;;;;;21.00;26.89;98475.16;5075935;28;1292;-75
2023/01/15 07:40:15;;;;;;;;;;;;;;;21.13;26.64;98486.63;5074683;28;923;-75
2023/01/15 07:51:14;;;;;;;;;;;;;;;20.72;27.34;98486.91;5033236;28;1009;-74
2023/01/15 07:53:39;;;;;;;;;;;;;;;21.10;27.08;98481.84;5033265;28;1033;-75
2023/01/15 07:56:04;;;;;;;;;;;;;;;21.46;26.52;98484.09;5037261;28;1053;-75
2023/01/15 07:58:30;;;;;;;;;;;;;;;21.72;26.03;98488.84;5039882;28;984;-75
2023/01/15 08:00:55;;;;;;;;;;;;;;;21.25;26.35;98485.25;5039667;28;1060;-75
2023/01/15 08:03:21;;;;;;;;;;;;;;;21.05;26.80;98488.81;5040260;28;977;-75
2023/01/15 08:05:46;;;;;;;;;;;;;;;20.98;26.80;98488.09;5039585;28;1094;-75
2023/01/15 08:08:15;;;;;;;;;;;;;;;21.30;26.42;98494.06;5039445;28;1141;-75
2023/01/15 08:15:11;;;;;;;;;;;;;;;21.28;26.38;98502.16;5039757;28;1917;-75
2023/01/15 08:16:10;;;;;;;;;;;;;;;21.53;26.40;98487.59;5039902;28;1058;-75
2023/01/15 08:18:35;;;;;;;;;;;;;;;21.28;26.53;98496.50;5049085;28;1021;-75
2023/01/15 08:21:01;;;;;;;;;;;;;;;20.98;26.76;98488.09;5080609;28;873;-75
2023/01/15 08:23:26;;;;;;;;;;;;;;;20.71;27.22;98490.97;5081943;28;1136;-74
2023/01/15 08:25:52;;;;;;;;;;;;;;;21.03;27.05;98496.09;5081924;28;926;-75
2023/01/15 08:28:17;;;;;;;;;;;;;;;21.30;26.52;98491.25;5082095;28;907;-75
2023/01/15 08:30:43;;;;;;;;;;;;;;;21.32;26.55;98487.97;5081538;28;1945;-75
2023/01/15 08:33:08;;;;;;;;;;;;;;;21.33;26.30;98501.69;5081814;28;934;-75
2023/01/15 08:35:34;;;;;;;;;;;;;;;21.05;26.90;98494.47;5081955;28;1105;-75
2023/01/15 08:38:03;;;;;;;;;;;;;;;20.96;26.91;98496.25;5080839;28;914;-74
2023/01/15 08:40:29;;;;;;;;;;;;;;;21.06;26.98;98498.09;5081866;28;977;-75
2023/01/15 08:42:54;;;;;;;;;;;;;;;21.44;26.35;98497.88;5081989;28;905;-75
2023/01/15 08:45:21;;;;;;;;;;;;;;;21.29;26.66;98489.59;5081773;28;1041;-74
2023/01/15 08:47:46;;;;;;;;;;;;;;;21.17;26.51;98490.22;5081933;28;907;-74
2023/01/15 08:50:12;;;;;;;;;;;;;;;20.90;27.13;98492.28;5079708;28;1993;-75
2023/01/15 08:52:38;;;;;;;;;;;;;;;20.94;27.09;98484.56;5081481;28;951;-75
2023/01/15 08:55:04;;;;;;;;;;;;;;;21.30;26.53;98477.09;5081587;28;885;-75
2023/01/15 08:57:29;;;;;;;;;;;;;;;21.12;27.00;98481.41;5081839;28;900;-74
2023/01/15 08:59:54;;;;;;;;;;;;;;;21.24;26.87;98478.78;5081422;28;935;-75
2023/01/15 09:02:20;;;;;;;;;;;;;;;21.04;26.81;98481.56;5079612;28;945;-76
2023/01/15 09:04:45;;;;;;;;;;;;;;;21.04;27.09;98481.56;5081619;28;877;-75
2023/01/15 09:07:11;;;;;;;;;;;;;;;21.04;26.85;98480.75;5079151;28;925;-74
2023/01/15 09:09:37;;;;;;;;;;;;;;;21.03;27.04;98473.47;5078383;28;1898;-75
2023/01/15 09:12:02;;;;;;;;;;;;;;;21.00;27.27;98474.34;5078532;28;938;-75
2023/01/15 09:14:28;;;;;;;;;;;;;;;21.26;27.07;98459.34;5076003;28;981;-75
2023/01/15 09:16:53;;;;;;;;;;;;;;;20.95;27.06;98463.53;5078124;28;1009;-75
2023/01/15 09:19:19;;;;;;;;;;;;;;;20.92;27.16;98461.53;5078399;28;984;-75
2023/01/15 09:21:44;;;;;;;;;;;;;;;21.04;26.95;98463.78;5078282;28;910;-74
2023/01/15 09:24:09;;;;;;;;;;;;;;;21.05;26.96;98471.03;5078345;28;946;-74
2023/01/15 09:26:36;;;;;;;;;;;;;;;21.45;26.29;98465.50;5077929;28;1041;-75
2023/01/15 09:29:01;;;;;;;;;;;;;;;21.37;26.77;98458.38;5078058;28;1975;-75
2023/01/15 09:31:27;;;;;;;;;;;;;;;20.97;27.28;98458.22;5076013;28;954;-74
2023/01/15 09:33:52;;;;;;;;;;;;;;;20.96;26.94;98465.91;5077766;28;976;-74
2023/01/15 09:36:26;;;;;;;;;;;;;;;20.75;27.34;98464.22;5077703;28;873;-75
2023/01/15 09:38:52;;;;;;;;;;;;;;;21.27;26.72;98449.59;5076967;28;1088;-75
2023/01/15 09:44:07;;;;;;;;;;;;;;;21.25;26.70;98443.59;5076766;28;915;-75
2023/01/15 09:46:59;;;;;;;;;;;;;;;20.95;27.33;98449.38;5077801;28;911;-74
2023/01/15 09:49:25;;;;;;;;;;;;;;;21.00;27.33;98444.03;5015637;28;1902;-75
2023/01/15 09:51:53;;;;;;;;;;;;;;;20.86;27.44;98440.63;5015403;28;979;-75
2023/01/15 09:54:27;;;;;;;;;;;;;;;21.11;26.88;98429.69;5015448;28;969;-75
2023/01/15 09:56:52;;;;;;;;;;;;;;;21.27;26.72;98435.47;5015312;28;1016;-75
2023/01/15 09:59:38;;;;;;;;;;;;;;;21.55;26.23;98424.84;4998850;28;944;-75
2023/01/15 10:02:10;;;;;;;;;;;;;;;21.00;27.05;98429.09;5015272;28;1080;-75
2023/01/15 10:04:37;;;;;;;;;;;;;;;20.83;27.21;98425.34;4999253;28;906;-75
2023/01/15 10:07:05;;;;;;;;;;;;;;;21.36;26.62;98429.28;4998878;28;1062;-75
2023/01/15 10:09:34;;;;;;;;;;;;;;;21.12;27.18;98419.97;4998501;28;1910;-75
2023/01/15 10:12:34;;;;;;;;;;;;;;;21.38;26.91;98421.13;4982721;28;988;-74
2023/01/15 10:15:12;;;;;;;;;;;;;;;21.03;27.11;98420.50;5014884;28;967;-75
2023/01/15 10:17:41;;;;;;;;;;;;;;;20.88;27.24;98416.38;5014047;28;2062;-75
2023/01/15 10:20:12;;;;;;;;;;;;;;;21.23;26.82;98409.25;4998250;28;1013;-75
2023/01/15 10:22:47;;;;;;;;;;;;;;;21.05;27.03;98400.31;5015010;28;1092;-75
2023/01/15 10:25:16;;;;;;;;;;;;;;;21.33;26.90;98393.34;4987959;28;1407;-74
2023/01/15 10:27:45;;;;;;;;;;;;;;;21.09;27.01;98392.56;5115137;28;943;-75
2023/01/15 10:30:22;;;;;;;;;;;;;;;21.01;27.40;98391.06;5097962;28;1985;-74
2023/01/15 10:32:55;;;;;;;;;;;;;;;21.23;26.90;98386.59;5097988;28;916;-75
2023/01/15 10:35:26;;;;;;;;;;;;;;;21.37;26.66;98379.13;5098332;28;997;-75
2023/01/15 10:38:12;;;;;;;;;;;;;;;21.53;26.59;98365.03;5114924;28;1016;-74
2023/01/15 10:40:44;;;;;;;;;;;;;;;21.16;26.85;98369.78;5098383;28;964;-75
2023/01/15 10:43:12;;;;;;;;;;;;;;;21.17;26.73;98371.38;5114789;28;990;-75
2023/01/15 10:45:40;;;;;;;;;;;;;;;20.96;27.40;98371.75;5115085;28;937;-75
2023/01/15 10:48:11;;;;;;;;;;;;;;;21.11;27.03;98364.63;5097631;28;974;-75
2023/01/15 10:50:37;;;;;;;;;;;;;;;21.28;26.79;98354.97;5114647;28;2004;-75
2023/01/15 10:53:08;;;;;;;;;;;;;;;21.31;26.92;98368.28;5098086;28;1197;-76
2023/01/15 10:55:51;;;;;;;;;;;;;;;20.80;27.31;98373.25;5097598;28;1204;-75
2023/01/15 10:58:26;;;;;;;;;;;;;;;20.69;27.63;98357.72;5088059;28;1643;-75
2023/01/15 11:00:54;;;;;;;;;;;;;;;20.94;27.46;98357.28;5076137;28;923;-75
2023/01/15 11:03:20;;;;;;;;;;;;;;;21.17;27.20;98365.72;5092193;28;932;-74
2023/01/15 11:05:45;;;;;;;;;;;;;;;21.40;26.67;98355.59;5091899;28;975;-74
2023/01/15 11:08:13;;;;;;;;;;;;;;;21.29;26.83;98350.91;5091886;28;1517;-75
2023/01/15 11:10:38;;;;;;;;;;;;;;;21.04;27.15;98354.25;5091512;28;1917;-75
2023/01/15 11:21:32;;;;;;;;;;;;;;;21.18;26.97;98336.16;5075730;28;933;-75
2023/01/15 11:23:58;;;;;;;;;;;;;;;21.24;27.05;98336.47;5091418;28;922;-75
2023/01/15 11:26:24;;;;;;;;;;;;;;;20.90;27.50;98333.91;5091339;28;1030;-75
2023/01/15 11:28:50;;;;;;;;;;;;;;;20.90;27.28;98343.19;5091384;28;1975;-76
2023/01/15 11:31:15;;;;;;;;;;;;;;;21.29;26.90;98333.91;5091093;28;1044;-75
2023/01/15 11:33:45;;;;;;;;;;;;;;;21.18;27.12;98330.50;5091645;28;1010;-75
2023/01/15 11:36:20;;;;;;;;;;;;;;;21.32;26.74;98330.25;5091461;28;882;-75
2023/01/15 11:38:46;;;;;;;;;;;;;;;21.27;26.90;98330.75;5091241;28;910;-74
2023/01/15 11:41:18;;;;;;;;;;;;;;;20.96;27.42;98320.84;5091536;28;1021;-75
2023/01/15 11:52:05;;;;;;;;;;;;;;;21.36;26.91;98320.91;5088751;28;968;-75
2023/01/15 11:54:31;;;;;;;;;;;;;;;21.13;27.13;98325.34;5091403;28;988;-75
2023/01/15 11:56:56;;;;;;;;;;;;;;;20.90;27.46;98322.59;5091253;28;922;-74
2023/01/15 11:59:21;;;;;;;;;;;;;;;20.78;27.89;98326.84;5074170;28;1121;-75
2023/01/15 12:01:49;;;;;;;;;;;;;;;21.22;27.15;98324.78;5107201;28;1074;-75
2023/01/15 12:04:21;;;;;;;;;;;;;;;21.36;26.94;98323.75;5090869;28;934;-75
2023/01/15 12:06:47;;;;;;;;;;;;;;;21.19;27.27;98317.97;5113758;28;998;-75
2023/01/15 12:09:32;;;;;;;;;;;;;;;21.07;27.30;98315.78;5096175;28;1969;-74
2023/01/15 12:12:15;;;;;;;;;;;;;;;20.81;27.72;98309.78;5073150;28;1113;-74
2023/01/15 12:14:45;;;;;;;;;;;;;;;20.70;27.81;98314.84;5039864;28;1093;-74
2023/01/15 12:17:30;;;;;;;;;;;;;;;21.01;27.57;98309.03;5056147;28;1020;-75
2023/01/15 12:20:04;;;;;;;;;;;;;;;21.09;27.14;98307.69;5072812;28;1071;-74
2023/01/15 12:22:38;;;;;;;;;;;;;;;21.38;27.10;98307.09;5073129;28;1014;-75
2023/01/15 12:25:13;;;;;;;;;;;;;;;21.04;27.28;98305.34;5072718;28;932;-75
2023/01/15 12:27:38;;;;;;;;;;;;;;;20.99;27.26;98303.81;5056480;28;910;-74
2023/01/15 12:30:22;;;;;;;;;;;;;;;21.24;27.34;98300.50;5072901;28;1902;-75
2023/01/15 12:32:57;;;;;;;;;;;;;;;21.36;26.97;98298.28;5072760;28;951;-75
2023/01/15 12:35:25;;;;;;;;;;;;;;;21.33;26.83;98295.06;5056229;28;1021;-75
2023/01/15 12:37:52;;;;;;;;;;;;;;;21.31;26.87;98302.41;5062059;28;1047;-76
2023/01/15 12:40:32;;;;;;;;;;;;;;;21.14;27.32;98298.69;5053005;28;1000;-75
2023/01/15 12:45:43;;;;;;;;;;;;;;;20.98;27.68;98307.84;5042495;28;999;-76
2023/01/15 12:48:21;;;;;;;;;;;;;;;21.43;26.98;98309.44;5042496;28;1051;-75
2023/01/15 12:50:53;;;;;;;;;;;;;;;21.19;27.19;98303.00;5078579;28;1914;-74
2023/01/15 12:53:37;;;;;;;;;;;;;;;21.25;26.98;98296.44;5094412;28;870;-76
2023/01/15 12:56:08;;;;;;;;;;;;;;;21.01;27.38;98290.03;5078498;28;971;-74
2023/01/15 12:58:40;;;;;;;;;;;;;;;20.94;27.53;98295.84;5078932;28;881;-75
2023/01/15 13:01:08;;;;;;;;;;;;;;;20.92;27.89;98291.81;5078557;28;976;-75
2023/01/15 13:03:39;;;;;;;;;;;;;;;21.42;26.85;98296.53;5078341;28;898;-75
2023/01/15 13:06:05;;;;;;;;;;;;;;;21.35;27.07;98288.97;5094396;28;857;-74
2023/01/15 13:08:30;;;;;;;;;;;;;;;21.20;27.00;98279.97;5116270;28;1236;-75
2023/01/15 13:10:56;;;;;;;;;;;;;;;21.03;27.49;98278.25;5116478;28;1914;-75
2023/01/15 13:13:23;;;;;;;;;;;;;;;20.97;27.58;98271.53;5099400;28;1008;-75
2023/01/15 13:15:54;;;;;;;;;;;;;;;20.95;27.48;98282.47;5099692;28;1301;-75
2023/01/15 13:18:28;;;;;;;;;;;;;;;21.17;27.30;98286.47;5116266;28;1120;-75
2023/01/15 13:20:54;;;;;;;;;;;;;;;21.10;27.46;98274.50;5099714;28;958;-74
2023/01/15 13:23:29;;;;;;;;;;;;;;;21.37;26.82;98272.34;5099400;28;980;-75
2023/01/15 13:26:01;;;;;;;;;;;;;;;20.97;27.62;98277.19;5055578;28;1053;-75
2023/01/15 13:28:39;;;;;;;;;;;;;;;20.97;27.60;98282.84;5055468;28;957;-75
2023/01/15 13:31:04;;;;;;;;;;;;;;;21.33;27.28;98282.94;5038969;28;1027;-75
2023/01/15 13:33:40;;;;;;;;;;;;;;;21.30;27.21;98278.97;5055451;28;994;-75
2023/01/15 13:36:15;;;;;;;;;;;;;;;21.37;26.86;98274.38;5055595;28;937;-75
2023/01/15 13:38:42;;;;;;;;;;;;;;;21.40;26.90;98276.31;5035459;28;1074;-75
2023/01/15 13:41:07;;;;;;;;;;;;;;;21.03;27.16;98273.41;5035479;28;1025;-75
2023/01/15 13:43:33;;;;;;;;;;;;;;;20.77;27.71;98269.47;5035532;28;968;-75
2023/01/15 13:45:59;;;;;;;;;;;;;;;21.05;27.69;98270.16;5035178;28;962;-75
2023/01/15 13:48:41;;;;;;;;;;;;;;;21.41;26.69;98266.63;5035185;28;938;-75
2023/01/15 13:51:06;;;;;;;;;;;;;;;21.70;26.58;98278.88;5018547;28;952;-75
2023/01/15 13:53:35;;;;;;;;;;;;;;;21.36;27.24;98273.59;5034453;28;1109;-75
2023/01/15 13:56:07;;;;;;;;;;;;;;;20.99;27.39;98269.06;5026348;28;1069;-74